Time;durP1;ratioP1;P1;durP2;ratioP2;P2;SDS_P1;SDS_P2;PMS_P1;PMS_P2;Temp;Humidity;BMP_temperature;BMP_pressure;BME280_temperature;BME280_humidity;BME280_pressure;Samples;Min_cycle;Max_cycle;Signal;HPM_P1;HPM_P2
2023/03/05 00:01:32;;;;;;;;;;;20.10;48.10;;;;;;1532758;76;1544;-63
2023/03/05 00:03:33;;;;;;;;;;;20.10;48.00;;;;;;1527923;76;669;-59
2023/03/05 00:05:35;;;;;;;;;;;20.10;48.10;;;;;;1511068;76;1957;-59
2023/03/05 00:07:37;;;;;;;;;;;20.10;48.10;;;;;;1533537;76;689;-59
2023/03/05 00:09:39;;;;;;;;;;;20.10;48.10;;;;;;1519153;76;756;-60
2023/03/05 00:11:41;;;;;;;;;;;20.00;48.00;;;;;;1548999;76;1145;-61
2023/03/05 00:13:43;;;;;;;;;;;20.10;48.10;;;;;;1523255;76;800;-61
2023/03/05 00:15:45;;;;;;;;;;;20.10;47.90;;;;;;1518699;76;1584;-61
2023/03/05 00:17:47;;;;;;;;;;;20.10;48.10;;;;;;1518356;76;800;-61
2023/03/05 00:19:49;;;;;;;;;;;20.00;48.00;;;;;;1520801;76;721;-59
2023/03/05 00:21:51;;;;;;;;;;;20.00;47.90;;;;;;1511159;76;1112;-59
2023/03/05 00:23:53;;;;;;;;;;;20.00;47.90;;;;;;1515270;76;839;-59
2023/03/05 00:25:54;;;;;;;;;;;20.00;47.90;;;;;;1520172;76;1943;-60
2023/03/05 00:27:56;;;;;;;;;;;20.00;47.80;;;;;;1533554;76;676;-60
2023/03/05 00:29:58;;;;;;;;;;;20.10;48.10;;;;;;1524772;76;1518;-60
2023/03/05 00:32:00;;;;;;;;;;;20.00;47.80;;;;;;1525200;76;1120;-61
2023/03/05 00:34:03;;;;;;;;;;;20.00;47.90;;;;;;1515577;76;774;-60
2023/03/05 00:36:05;;;;;;;;;;;20.00;47.80;;;;;;1518245;76;742;-60
2023/03/05 00:38:07;;;;;;;;;;;20.00;47.90;;;;;;1536236;76;940;-61
2023/03/05 00:40:09;;;;;;;;;;;20.00;47.90;;;;;;1526895;76;771;-60
2023/03/05 00:42:11;;;;;;;;;;;20.00;47.90;;;;;;1538458;76;1141;-63
2023/03/05 00:44:13;;;;;;;;;;;20.00;47.80;;;;;;1538902;76;1483;-59
2023/03/05 00:46:15;;;;;;;;;;;20.00;47.90;;;;;;1519048;76;1954;-59
2023/03/05 00:48:17;;;;;;;;;;;19.90;47.70;;;;;;1536818;76;760;-61
2023/03/05 00:50:19;;;;;;;;;;;19.90;47.80;;;;;;1534214;76;707;-60
2023/03/05 00:52:21;;;;;;;;;;;19.90;47.80;;;;;;1539055;76;1165;-59
2023/03/05 00:54:23;;;;;;;;;;;19.90;47.80;;;;;;1527071;76;711;-61
2023/03/05 00:56:24;;;;;;;;;;;19.90;47.90;;;;;;1522105;76;758;-59
2023/03/05 00:58:26;;;;;;;;;;;19.90;47.80;;;;;;1529169;76;1665;-60
2023/03/05 01:00:28;;;;;;;;;;;19.90;47.80;;;;;;1530828;76;711;-60
2023/03/05 01:02:30;;;;;;;;;;;19.90;47.80;;;;;;1527384;76;1135;-60
2023/03/05 01:04:32;;;;;;;;;;;19.90;47.80;;;;;;1523553;76;730;-61
2023/03/05 01:06:34;;;;;;;;;;;19.90;47.90;;;;;;1522195;76;1952;-61
2023/03/05 01:08:36;;;;;;;;;;;19.90;47.90;;;;;;1513174;76;809;-59
2023/03/05 01:10:38;;;;;;;;;;;19.90;47.80;;;;;;1519757;76;740;-59
2023/03/05 01:12:40;;;;;;;;;;;19.90;47.90;;;;;;1542150;76;1634;-60
2023/03/05 01:14:42;;;;;;;;;;;19.90;47.90;;;;;;1523793;76;728;-59
2023/03/05 01:16:43;;;;;;;;;;;19.90;47.90;;;;;;1512720;76;722;-60
2023/03/05 01:18:45;;;;;;;;;;;19.90;47.80;;;;;;1520863;76;722;-62
2023/03/05 01:20:47;;;;;;;;;;;19.90;47.80;;;;;;1531381;76;755;-61
2023/03/05 01:22:49;;;;;;;;;;;19.90;47.80;;;;;;1524042;76;1150;-60
2023/03/05 01:24:51;;;;;;;;;;;19.90;47.90;;;;;;1524755;76;1304;-61
2023/03/05 01:26:53;;;;;;;;;;;19.90;47.90;;;;;;1516973;76;1948;-60
2023/03/05 01:28:55;;;;;;;;;;;19.90;47.90;;;;;;1532353;76;754;-59
2023/03/05 01:30:57;;;;;;;;;;;19.90;47.80;;;;;;1527499;76;1149;-59
2023/03/05 01:32:59;;;;;;;;;;;19.90;47.80;;;;;;1520445;76;803;-60
2023/03/05 01:35:01;;;;;;;;;;;19.90;47.90;;;;;;1524096;76;806;-59
2023/03/05 01:37:03;;;;;;;;;;;19.90;47.80;;;;;;1519445;76;777;-59
2023/03/05 01:39:05;;;;;;;;;;;19.90;47.90;;;;;;1511947;76;1329;-59
2023/03/05 01:41:07;;;;;;;;;;;19.90;47.80;;;;;;1523624;76;1131;-60
2023/03/05 01:43:14;;;;;;;;;;;19.90;47.80;;;;;;1515771;76;779;-59
2023/03/05 01:45:16;;;;;;;;;;;19.80;47.70;;;;;;1522178;76;706;-60
2023/03/05 01:47:18;;;;;;;;;;;19.90;47.80;;;;;;1522232;76;1928;-61
2023/03/05 01:49:25;;;;;;;;;;;19.90;47.80;;;;;;1527073;76;732;-61
2023/03/05 01:51:28;;;;;;;;;;;19.90;47.80;;;;;;1532235;76;1174;-60
2023/03/05 01:53:30;;;;;;;;;;;19.90;47.80;;;;;;1511716;76;1537;-60
2023/03/05 01:55:32;;;;;;;;;;;19.90;47.80;;;;;;1546183;76;737;-60
2023/03/05 01:57:35;;;;;;;;;;;19.90;47.80;;;;;;1517743;76;770;-62
2023/03/05 01:59:37;;;;;;;;;;;19.90;47.80;;;;;;1516932;76;808;-60
2023/03/05 02:01:40;;;;;;;;;;;19.90;47.80;;;;;;1527067;76;1162;-60
2023/03/05 02:03:42;;;;;;;;;;;19.90;47.70;;;;;;1524407;76;770;-60
2023/03/05 02:05:44;;;;;;;;;;;19.90;47.80;;;;;;1520889;76;729;-60
2023/03/05 02:07:46;;;;;;;;;;;19.90;47.70;;;;;;1514276;76;1949;-60
2023/03/05 02:09:47;;;;;;;;;;;19.90;47.70;;;;;;1521704;76;668;-60
2023/03/05 02:11:49;;;;;;;;;;;19.90;47.80;;;;;;1513365;76;1111;-60
2023/03/05 02:13:51;;;;;;;;;;;19.90;47.70;;;;;;1531014;76;867;-60
2023/03/05 02:15:54;;;;;;;;;;;19.90;47.70;;;;;;1531438;76;697;-60
2023/03/05 02:17:55;;;;;;;;;;;19.90;47.70;;;;;;1513770;76;785;-60
2023/03/05 02:19:59;;;;;;;;;;;19.80;47.70;;;;;;1527648;76;764;-61
2023/03/05 02:22:01;;;;;;;;;;;19.80;47.60;;;;;;1534402;76;1566;-60
2023/03/05 02:24:03;;;;;;;;;;;19.90;47.70;;;;;;1537938;76;747;-60
2023/03/05 02:26:05;;;;;;;;;;;19.80;47.60;;;;;;1518855;76;1932;-60
2023/03/05 02:28:21;;;;;;;;;;;19.80;47.60;;;;;;1530869;76;671;-65
2023/03/05 02:30:23;;;;;;;;;;;19.80;47.70;;;;;;1515931;76;2116;-62
2023/03/05 02:32:25;;;;;;;;;;;19.80;47.60;;;;;;1531590;76;1131;-60
2023/03/05 02:34:27;;;;;;;;;;;19.90;47.70;;;;;;1522690;76;766;-59
2023/03/05 02:36:29;;;;;;;;;;;19.80;47.60;;;;;;1532647;76;1519;-60
2023/03/05 02:38:30;;;;;;;;;;;19.80;47.60;;;;;;1515040;76;784;-60
2023/03/05 02:40:32;;;;;;;;;;;19.80;47.60;;;;;;1522680;76;718;-60
2023/03/05 02:42:34;;;;;;;;;;;19.80;47.60;;;;;;1513056;76;1123;-60
2023/03/05 02:44:36;;;;;;;;;;;19.80;47.60;;;;;;1514599;77;689;-60
2023/03/05 02:46:38;;;;;;;;;;;19.80;47.60;;;;;;1513120;76;1953;-60
2023/03/05 02:48:40;;;;;;;;;;;19.80;47.60;;;;;;1509712;76;785;-60
2023/03/05 02:50:42;;;;;;;;;;;19.80;47.50;;;;;;1524849;76;1515;-60
2023/03/05 02:52:44;;;;;;;;;;;19.80;47.60;;;;;;1519049;76;1127;-60
2023/03/05 02:54:45;;;;;;;;;;;19.80;47.50;;;;;;1532644;76;720;-60
2023/03/05 02:56:47;;;;;;;;;;;19.80;47.60;;;;;;1517435;76;763;-60
2023/03/05 02:58:49;;;;;;;;;;;19.80;47.60;;;;;;1510134;76;722;-60
2023/03/05 03:00:51;;;;;;;;;;;19.80;47.50;;;;;;1535161;76;1159;-60
2023/03/05 03:02:53;;;;;;;;;;;19.80;47.50;;;;;;1509255;76;695;-60
2023/03/05 03:04:55;;;;;;;;;;;19.80;47.50;;;;;;1522790;76;1637;-60
2023/03/05 03:06:57;;;;;;;;;;;19.80;47.50;;;;;;1521527;76;1944;-60
2023/03/05 03:08:59;;;;;;;;;;;19.80;47.40;;;;;;1519175;76;833;-61
2023/03/05 03:11:07;;;;;;;;;;;19.80;47.50;;;;;;1531127;76;1119;-60
2023/03/05 03:13:08;;;;;;;;;;;19.80;47.50;;;;;;1529672;76;746;-59
2023/03/05 03:15:11;;;;;;;;;;;19.80;47.50;;;;;;1532949;76;704;-61
2023/03/05 03:17:14;;;;;;;;;;;19.80;47.40;;;;;;1520879;76;756;-60
2023/03/05 03:19:16;;;;;;;;;;;19.80;47.50;;;;;;1512605;76;1733;-60
2023/03/05 03:21:18;;;;;;;;;;;19.80;47.50;;;;;;1528952;76;1159;-60
2023/03/05 03:23:20;;;;;;;;;;;19.80;47.50;;;;;;1519605;76;726;-61
2023/03/05 03:25:22;;;;;;;;;;;19.80;47.50;;;;;;1532812;76;739;-60
2023/03/05 03:27:24;;;;;;;;;;;19.80;47.50;;;;;;1523749;76;1944;-61
2023/03/05 03:29:26;;;;;;;;;;;19.80;47.40;;;;;;1518838;76;702;-60
2023/03/05 03:31:28;;;;;;;;;;;19.80;47.50;;;;;;1528568;76;1565;-66
2023/03/05 03:33:30;;;;;;;;;;;19.80;47.50;;;;;;1530167;76;740;-62
2023/03/05 03:35:32;;;;;;;;;;;19.80;47.40;;;;;;1520311;76;794;-60
2023/03/05 03:37:34;;;;;;;;;;;19.80;47.40;;;;;;1521243;76;737;-60
2023/03/05 03:39:36;;;;;;;;;;;19.80;47.50;;;;;;1519346;76;704;-60
2023/03/05 03:41:40;;;;;;;;;;;19.80;47.50;;;;;;1527259;76;1139;-60
2023/03/05 03:43:41;;;;;;;;;;;19.80;47.40;;;;;;1524413;76;713;-61
2023/03/05 03:45:43;;;;;;;;;;;19.80;47.50;;;;;;1531706;76;1552;-61
2023/03/05 03:47:45;;;;;;;;;;;19.80;47.40;;;;;;1537398;76;1940;-60
2023/03/05 03:49:47;;;;;;;;;;;19.80;47.40;;;;;;1525213;77;1165;-61
2023/03/05 03:51:49;;;;;;;;;;;19.90;47.40;;;;;;1521210;76;1168;-60
2023/03/05 03:53:51;;;;;;;;;;;19.80;47.30;;;;;;1522486;76;859;-61
2023/03/05 03:55:54;;;;;;;;;;;19.80;47.30;;;;;;1512812;76;709;-62
2023/03/05 03:57:56;;;;;;;;;;;19.80;47.30;;;;;;1530466;76;1473;-61
2023/03/05 03:59:58;;;;;;;;;;;19.80;47.40;;;;;;1526717;76;1523;-61
2023/03/05 04:02:00;;;;;;;;;;;19.70;47.30;;;;;;1533509;76;1180;-60
2023/03/05 04:04:02;;;;;;;;;;;19.80;47.30;;;;;;1525307;76;789;-61
2023/03/05 04:06:04;;;;;;;;;;;19.70;47.30;;;;;;1521370;76;737;-60
2023/03/05 04:08:10;;;;;;;;;;;19.80;47.40;;;;;;1523078;76;1941;-63
2023/03/05 04:10:11;;;;;;;;;;;19.80;47.40;;;;;;1518876;76;1584;-60
2023/03/05 04:12:16;;;;;;;;;;;19.80;47.30;;;;;;1522251;76;1144;-60
2023/03/05 04:14:16;;;;;;;;;;;19.70;47.30;;;;;;1520245;76;1632;-61
2023/03/05 04:16:18;;;;;;;;;;;19.80;47.30;;;;;;1526796;76;722;-62
2023/03/05 04:18:20;;;;;;;;;;;19.70;47.30;;;;;;1528211;76;730;-60
2023/03/05 04:20:22;;;;;;;;;;;19.70;47.30;;;;;;1520110;76;949;-61
2023/03/05 04:22:24;;;;;;;;;;;19.70;47.30;;;;;;1517383;76;1166;-60
2023/03/05 04:24:26;;;;;;;;;;;19.80;47.30;;;;;;1518532;76;813;-60
2023/03/05 04:26:28;;;;;;;;;;;19.80;47.20;;;;;;1534451;76;683;-61
2023/03/05 04:28:30;;;;;;;;;;;19.70;47.30;;;;;;1522702;76;1931;-60
2023/03/05 04:30:31;;;;;;;;;;;19.70;47.30;;;;;;1524595;76;700;-61
2023/03/05 04:32:33;;;;;;;;;;;19.80;47.30;;;;;;1511008;76;1130;-60
2023/03/05 04:34:36;;;;;;;;;;;19.70;47.20;;;;;;1518675;76;772;-60
2023/03/05 04:36:38;;;;;;;;;;;19.70;47.20;;;;;;1517040;76;705;-61
2023/03/05 04:38:40;;;;;;;;;;;19.70;47.30;;;;;;1516993;76;688;-63
2023/03/05 04:40:42;;;;;;;;;;;19.70;47.30;;;;;;1515009;76;699;-63
2023/03/05 04:42:44;;;;;;;;;;;20.00;47.30;;;;;;1522600;76;1616;-60
2023/03/05 04:44:46;;;;;;;;;;;19.70;47.20;;;;;;1525163;76;717;-60
2023/03/05 04:46:49;;;;;;;;;;;19.70;47.20;;;;;;1527475;76;1928;-61
2023/03/05 04:48:50;;;;;;;;;;;19.70;47.30;;;;;;1525642;76;665;-60
2023/03/05 04:50:52;;;;;;;;;;;19.70;47.30;;;;;;1525696;76;1182;-60
2023/03/05 04:52:54;;;;;;;;;;;19.70;47.20;;;;;;1513971;76;830;-62
2023/03/05 04:54:56;;;;;;;;;;;19.70;47.20;;;;;;1525825;76;819;-59
2023/03/05 04:56:58;;;;;;;;;;;19.70;47.20;;;;;;1501942;77;1601;-60
2023/03/05 04:59:00;;;;;;;;;;;19.70;47.20;;;;;;1516116;76;730;-60
2023/03/05 05:01:02;;;;;;;;;;;19.70;47.20;;;;;;1528098;76;1170;-60
2023/03/05 05:03:04;;;;;;;;;;;19.70;47.30;;;;;;1527914;76;699;-61
2023/03/05 05:05:06;;;;;;;;;;;19.70;47.30;;;;;;1509147;76;752;-61
2023/03/05 05:07:08;;;;;;;;;;;19.70;47.20;;;;;;1529300;76;2076;-63
2023/03/05 05:09:09;;;;;;;;;;;19.70;47.20;;;;;;1531125;76;709;-61
2023/03/05 05:11:12;;;;;;;;;;;19.70;47.20;;;;;;1524161;76;1500;-64
2023/03/05 05:13:14;;;;;;;;;;;19.70;47.10;;;;;;1526035;76;731;-60
2023/03/05 05:15:16;;;;;;;;;;;19.70;47.20;;;;;;1518926;76;672;-60
2023/03/05 05:17:18;;;;;;;;;;;19.70;47.20;;;;;;1523619;76;811;-60
2023/03/05 05:19:19;;;;;;;;;;;19.70;47.20;;;;;;1518255;76;745;-60
2023/03/05 05:21:21;;;;;;;;;;;19.70;47.30;;;;;;1523757;76;1096;-60
2023/03/05 05:23:23;;;;;;;;;;;19.60;46.50;;;;;;1526098;76;798;-60
2023/03/05 05:25:25;;;;;;;;;;;19.50;46.70;;;;;;1519473;76;1509;-61
2023/03/05 05:27:27;;;;;;;;;;;19.40;46.10;;;;;;1534092;76;1963;-60
2023/03/05 05:29:29;;;;;;;;;;;19.30;46.80;;;;;;1536979;76;698;-60
2023/03/05 05:31:31;;;;;;;;;;;19.30;46.50;;;;;;1523996;76;1131;-60
2023/03/05 05:33:33;;;;;;;;;;;19.30;46.50;;;;;;1534496;76;776;-60
2023/03/05 05:35:36;;;;;;;;;;;19.20;46.40;;;;;;1526099;76;795;-60
2023/03/05 05:37:38;;;;;;;;;;;19.20;46.60;;;;;;1541615;76;1929;-60
2023/03/05 05:39:40;;;;;;;;;;;19.20;46.80;;;;;;1526563;76;1604;-60
2023/03/05 05:41:42;;;;;;;;;;;19.10;46.80;;;;;;1519935;76;1154;-60
2023/03/05 05:43:44;;;;;;;;;;;19.10;46.80;;;;;;1518194;76;720;-60
2023/03/05 05:45:46;;;;;;;;;;;19.10;46.70;;;;;;1520078;76;686;-60
2023/03/05 05:47:47;;;;;;;;;;;19.10;47.10;;;;;;1518548;76;1945;-60
2023/03/05 05:49:49;;;;;;;;;;;19.10;46.90;;;;;;1539989;76;750;-61
2023/03/05 05:51:51;;;;;;;;;;;19.10;46.90;;;;;;1530937;76;1178;-61
2023/03/05 05:53:53;;;;;;;;;;;19.10;46.90;;;;;;1520988;76;1702;-61
2023/03/05 05:55:55;;;;;;;;;;;19.10;47.10;;;;;;1529906;76;768;-61
2023/03/05 05:57:57;;;;;;;;;;;19.20;46.90;;;;;;1519205;76;681;-59
2023/03/05 05:59:59;;;;;;;;;;;19.20;47.50;;;;;;1519402;76;795;-60
2023/03/05 06:02:01;;;;;;;;;;;19.30;47.60;;;;;;1521694;77;1151;-60
2023/03/05 06:04:02;;;;;;;;;;;19.40;47.40;;;;;;1518203;76;664;-60
2023/03/05 06:06:06;;;;;;;;;;;19.50;47.30;;;;;;1542941;76;699;-60
2023/03/05 06:08:08;;;;;;;;;;;19.60;47.30;;;;;;1514012;76;1942;-59
2023/03/05 06:10:10;;;;;;;;;;;19.60;47.20;;;;;;1539145;76;739;-60
2023/03/05 06:12:12;;;;;;;;;;;19.60;47.20;;;;;;1522348;76;1168;-60
2023/03/05 06:14:14;;;;;;;;;;;19.70;47.30;;;;;;1524745;76;747;-60
2023/03/05 06:16:17;;;;;;;;;;;19.70;47.30;;;;;;1526509;76;639;-60
2023/03/05 06:18:19;;;;;;;;;;;19.70;47.30;;;;;;1525922;76;742;-61
2023/03/05 06:20:22;;;;;;;;;;;19.70;47.30;;;;;;1521897;76;1532;-60
2023/03/05 06:22:23;;;;;;;;;;;19.70;47.30;;;;;;1540791;76;1147;-60
2023/03/05 06:24:25;;;;;;;;;;;19.70;47.30;;;;;;1525978;76;779;-60
2023/03/05 06:26:27;;;;;;;;;;;19.70;47.30;;;;;;1512944;76;738;-61
2023/03/05 06:28:29;;;;;;;;;;;19.70;47.30;;;;;;1517961;76;1927;-60
2023/03/05 06:30:31;;;;;;;;;;;19.70;47.20;;;;;;1519643;76;763;-60
2023/03/05 06:32:33;;;;;;;;;;;19.70;47.20;;;;;;1527516;76;1138;-62
2023/03/05 06:34:35;;;;;;;;;;;19.70;47.20;;;;;;1516642;76;1539;-60
2023/03/05 06:36:37;;;;;;;;;;;19.70;47.10;;;;;;1525924;76;744;-61
2023/03/05 06:38:39;;;;;;;;;;;19.70;47.10;;;;;;1513526;76;696;-61
2023/03/05 06:40:41;;;;;;;;;;;19.70;47.10;;;;;;1526099;76;753;-60
2023/03/05 06:42:43;;;;;;;;;;;19.70;47.20;;;;;;1528977;76;1111;-61
2023/03/05 06:44:45;;;;;;;;;;;19.70;47.00;;;;;;1524732;76;938;-60
2023/03/05 06:46:47;;;;;;;;;;;19.70;47.10;;;;;;1514177;76;693;-60
2023/03/05 06:48:49;;;;;;;;;;;19.70;47.00;;;;;;1523740;76;1962;-60
2023/03/05 06:50:51;;;;;;;;;;;19.70;46.90;;;;;;1510949;76;1240;-60
2023/03/05 06:52:53;;;;;;;;;;;19.80;46.90;;;;;;1517970;76;721;-60
2023/03/05 06:54:55;;;;;;;;;;;19.80;46.80;;;;;;1523803;76;764;-60
2023/03/05 06:56:57;;;;;;;;;;;19.80;46.80;;;;;;1514184;76;769;-61
2023/03/05 06:58:59;;;;;;;;;;;19.70;46.90;;;;;;1527842;76;761;-61
2023/03/05 07:01:01;;;;;;;;;;;19.70;46.80;;;;;;1527197;76;1159;-61
2023/03/05 07:03:03;;;;;;;;;;;19.80;46.80;;;;;;1529776;76;1548;-60
2023/03/05 07:05:05;;;;;;;;;;;19.70;46.70;;;;;;1523476;76;779;-60
2023/03/05 07:07:07;;;;;;;;;;;19.70;46.80;;;;;;1530696;76;815;-60
2023/03/05 07:09:10;;;;;;;;;;;19.80;46.60;;;;;;1543220;76;1935;-59
2023/03/05 07:11:12;;;;;;;;;;;19.80;46.60;;;;;;1523501;76;1101;-60
2023/03/05 07:13:14;;;;;;;;;;;19.80;46.50;;;;;;1526276;76;659;-62
2023/03/05 07:15:16;;;;;;;;;;;19.80;46.50;;;;;;1512857;76;751;-60
2023/03/05 07:17:18;;;;;;;;;;;19.70;46.50;;;;;;1517497;76;1598;-60
2023/03/05 07:19:20;;;;;;;;;;;19.80;46.50;;;;;;1526765;76;869;-60
2023/03/05 07:21:23;;;;;;;;;;;19.70;46.60;;;;;;1515868;76;1143;-64
2023/03/05 07:23:24;;;;;;;;;;;19.80;46.70;;;;;;1526992;76;796;-61
2023/03/05 07:25:26;;;;;;;;;;;19.70;46.70;;;;;;1545601;76;774;-60
2023/03/05 07:27:28;;;;;;;;;;;19.70;46.60;;;;;;1526285;76;682;-60
2023/03/05 07:29:30;;;;;;;;;;;19.70;46.70;;;;;;1527640;76;1938;-60
2023/03/05 07:31:32;;;;;;;;;;;19.70;46.60;;;;;;1527787;76;1313;-60
2023/03/05 07:33:36;;;;;;;;;;;19.70;46.70;;;;;;1543727;76;719;-60
2023/03/05 07:35:43;;;;;;;;;;;19.70;46.70;;;;;;1539343;76;735;-61
2023/03/05 07:37:45;;;;;;;;;;;19.70;46.70;;;;;;1540822;76;2015;-67
2023/03/05 07:39:46;;;;;;;;;;;19.70;46.80;;;;;;1530132;76;686;-61
2023/03/05 07:41:50;;;;;;;;;;;19.70;46.80;;;;;;1512471;76;1140;-61
2023/03/05 07:43:52;;;;;;;;;;;19.70;46.80;;;;;;1517784;76;871;-60
2023/03/05 07:45:54;;;;;;;;;;;19.70;46.80;;;;;;1527190;76;1580;-61
2023/03/05 07:47:56;;;;;;;;;;;19.70;46.80;;;;;;1511769;76;1944;-61
2023/03/05 07:49:58;;;;;;;;;;;19.70;46.80;;;;;;1521141;76;751;-59
2023/03/05 07:52:00;;;;;;;;;;;19.80;46.70;;;;;;1524963;76;1148;-60
2023/03/05 07:54:02;;;;;;;;;;;19.70;46.50;;;;;;1520342;76;794;-60
2023/03/05 07:56:04;;;;;;;;;;;19.70;46.80;;;;;;1520536;76;792;-60
2023/03/05 07:58:06;;;;;;;;;;;19.70;46.70;;;;;;1527913;76;727;-60
2023/03/05 08:00:09;;;;;;;;;;;19.70;46.60;;;;;;1513597;76;1422;-60
2023/03/05 08:02:11;;;;;;;;;;;19.70;46.70;;;;;;1539297;76;1131;-60
2023/03/05 08:04:13;;;;;;;;;;;19.70;46.80;;;;;;1521433;76;834;-60
2023/03/05 08:06:15;;;;;;;;;;;19.70;46.70;;;;;;1534631;76;797;-60
2023/03/05 08:08:17;;;;;;;;;;;19.60;46.50;;;;;;1539817;76;1938;-61
2023/03/05 08:10:19;;;;;;;;;;;19.70;46.80;;;;;;1538286;76;797;-61
2023/03/05 08:12:22;;;;;;;;;;;19.60;46.50;;;;;;1523018;76;1164;-60
2023/03/05 08:14:23;;;;;;;;;;;19.70;46.70;;;;;;1523524;76;1520;-59
2023/03/05 08:16:25;;;;;;;;;;;19.60;46.60;;;;;;1529536;76;807;-60
2023/03/05 08:18:27;;;;;;;;;;;19.70;46.70;;;;;;1530144;76;770;-60
2023/03/05 08:20:29;;;;;;;;;;;19.60;46.50;;;;;;1503376;77;734;-61
2023/03/05 08:22:34;;;;;;;;;;;19.60;46.50;;;;;;1536190;76;1076;-61
2023/03/05 08:24:36;;;;;;;;;;;19.60;46.50;;;;;;1521785;76;780;-63
2023/03/05 08:26:38;;;;;;;;;;;19.60;46.50;;;;;;1520065;76;663;-65
2023/03/05 08:28:40;;;;;;;;;;;19.60;46.60;;;;;;1511530;76;1937;-60
2023/03/05 08:30:41;;;;;;;;;;;19.60;46.50;;;;;;1525383;76;681;-61
2023/03/05 08:32:43;;;;;;;;;;;19.60;46.50;;;;;;1522492;76;1107;-64
2023/03/05 08:34:45;;;;;;;;;;;19.60;46.50;;;;;;1531740;76;756;-60
2023/03/05 08:36:47;;;;;;;;;;;19.60;46.50;;;;;;1523356;76;718;-61
2023/03/05 08:38:50;;;;;;;;;;;19.60;46.50;;;;;;1539407;76;878;-61
2023/03/05 08:40:51;;;;;;;;;;;19.60;46.50;;;;;;1530413;76;1311;-61
2023/03/05 08:42:53;;;;;;;;;;;19.60;46.50;;;;;;1528995;76;672;-60
2023/03/05 08:44:55;;;;;;;;;;;19.60;46.50;;;;;;1510375;76;799;-60
2023/03/05 08:46:57;;;;;;;;;;;19.60;46.40;;;;;;1521435;76;700;-60
2023/03/05 08:48:59;;;;;;;;;;;19.60;46.40;;;;;;1521278;76;1936;-60
2023/03/05 08:51:06;;;;;;;;;;;19.60;46.50;;;;;;1530173;76;1131;-60
2023/03/05 08:53:08;;;;;;;;;;;19.60;46.50;;;;;;1518712;76;1233;-60
2023/03/05 08:55:11;;;;;;;;;;;19.60;46.50;;;;;;1519330;76;1521;-60
2023/03/05 08:57:13;;;;;;;;;;;19.60;46.40;;;;;;1515665;76;751;-60
2023/03/05 08:59:15;;;;;;;;;;;19.60;46.40;;;;;;1522757;76;686;-61
2023/03/05 09:01:17;;;;;;;;;;;19.60;46.50;;;;;;1534517;76;1198;-60
2023/03/05 09:03:18;;;;;;;;;;;19.60;46.40;;;;;;1527924;76;801;-60
2023/03/05 09:05:20;;;;;;;;;;;19.60;46.40;;;;;;1518809;76;611;-60
2023/03/05 09:07:22;;;;;;;;;;;19.60;46.40;;;;;;1520168;76;744;-60
2023/03/05 09:09:24;;;;;;;;;;;19.60;46.50;;;;;;1521842;76;1944;-61
2023/03/05 09:11:26;;;;;;;;;;;19.60;46.40;;;;;;1529928;76;1117;-61
2023/03/05 09:13:28;;;;;;;;;;;19.60;46.40;;;;;;1518573;76;687;-60
2023/03/05 09:15:30;;;;;;;;;;;19.60;46.40;;;;;;1524158;76;735;-60
2023/03/05 09:17:32;;;;;;;;;;;19.60;46.40;;;;;;1519926;76;808;-60
2023/03/05 09:19:34;;;;;;;;;;;19.60;46.50;;;;;;1515962;76;901;-60
2023/03/05 09:21:36;;;;;;;;;;;19.60;46.40;;;;;;1533845;76;1166;-60
2023/03/05 09:23:38;;;;;;;;;;;19.60;46.50;;;;;;1525379;76;1540;-61
2023/03/05 09:25:40;;;;;;;;;;;19.60;46.40;;;;;;1523227;76;775;-61
2023/03/05 09:27:42;;;;;;;;;;;19.60;46.40;;;;;;1519053;76;779;-60
2023/03/05 09:29:44;;;;;;;;;;;19.60;46.40;;;;;;1523314;76;1926;-60
2023/03/05 09:31:48;;;;;;;;;;;19.60;46.40;;;;;;1537702;76;1151;-60
2023/03/05 09:33:50;;;;;;;;;;;19.60;46.40;;;;;;1535339;76;1957;-61
2023/03/05 09:35:51;;;;;;;;;;;19.60;46.40;;;;;;1529287;76;738;-62
2023/03/05 09:37:53;;;;;;;;;;;19.60;46.40;;;;;;1524898;76;1555;-60
2023/03/05 09:39:55;;;;;;;;;;;19.60;46.40;;;;;;1516684;76;698;-60
2023/03/05 09:42:05;;;;;;;;;;;19.60;46.40;;;;;;1515956;76;1154;-61
2023/03/05 09:44:23;;;;;;;;;;;19.60;46.40;;;;;;1511617;76;2122;-61
2023/03/05 09:46:27;;;;;;;;;;;19.60;46.50;;;;;;1532844;76;747;-60
2023/03/05 09:48:30;;;;;;;;;;;19.50;46.40;;;;;;1518352;76;780;-60
2023/03/05 09:50:34;;;;;;;;;;;19.50;46.50;;;;;;1521142;76;1931;-66
2023/03/05 09:52:37;;;;;;;;;;;19.60;46.50;;;;;;1527780;76;1828;-61
2023/03/05 09:54:41;;;;;;;;;;;19.60;46.50;;;;;;1526676;76;745;-61
2023/03/05 09:56:44;;;;;;;;;;;19.60;46.50;;;;;;1509792;76;674;-61
2023/03/05 09:58:48;;;;;;;;;;;19.50;46.40;;;;;;1516473;76;973;-60
2023/03/05 10:00:50;;;;;;;;;;;19.50;46.50;;;;;;1524218;76;767;-60
2023/03/05 10:02:54;;;;;;;;;;;19.60;46.40;;;;;;1521095;76;771;-60
2023/03/05 10:05:04;;;;;;;;;;;19.50;46.40;;;;;;1523579;76;794;-61
2023/03/05 10:07:13;;;;;;;;;;;19.60;46.40;;;;;;1529447;76;1673;-60
2023/03/05 10:09:32;;;;;;;;;;;19.50;46.40;;;;;;1532413;76;1937;-60
2023/03/05 10:11:35;;;;;;;;;;;19.50;46.40;;;;;;1526191;76;1156;-61
2023/03/05 10:13:38;;;;;;;;;;;19.50;46.40;;;;;;1521907;76;1895;-67
2023/03/05 10:15:58;;;;;;;;;;;19.50;46.50;;;;;;1519339;76;739;-60
2023/03/05 10:18:01;;;;;;;;;;;19.50;46.50;;;;;;1524683;76;783;-61
2023/03/05 10:20:05;;;;;;;;;;;19.50;46.40;;;;;;1532221;76;1575;-61
2023/03/05 10:22:15;;;;;;;;;;;19.50;46.40;;;;;;1531906;76;1150;-60
2023/03/05 10:24:18;;;;;;;;;;;19.50;46.40;;;;;;1516133;76;768;-60
2023/03/05 10:26:37;;;;;;;;;;;19.50;46.40;;;;;;1519989;76;679;-62
2023/03/05 10:28:57;;;;;;;;;;;19.40;46.30;;;;;;1519880;76;1909;-60
2023/03/05 10:31:10;;;;;;;;;;;19.50;46.40;;;;;;1516380;76;1103;-60
2023/03/05 10:33:19;;;;;;;;;;;19.50;46.50;;;;;;1525268;76;1493;-60
2023/03/05 10:35:32;;;;;;;;;;;19.50;46.40;;;;;;1523707;76;739;-60
2023/03/05 10:37:35;;;;;;;;;;;19.50;46.40;;;;;;1527291;76;673;-64
2023/03/05 10:39:45;;;;;;;;;;;19.50;46.50;;;;;;1508529;76;1656;-61
2023/03/05 10:41:51;;;;;;;;;;;19.50;46.40;;;;;;1527438;76;1160;-61
2023/03/05 10:43:54;;;;;;;;;;;19.50;46.40;;;;;;1530030;76;1630;-60
2023/03/05 10:45:55;;;;;;;;;;;19.50;46.30;;;;;;1528259;76;1397;-61
2023/03/05 10:48:02;;;;;;;;;;;19.60;46.40;;;;;;1524944;76;1520;-60
2023/03/05 10:50:05;;;;;;;;;;;19.50;46.40;;;;;;1514798;76;1939;-60
2023/03/05 10:52:15;;;;;;;;;;;19.50;46.40;;;;;;1536391;76;1732;-64
2023/03/05 10:54:29;;;;;;;;;;;19.50;46.50;;;;;;1519866;76;740;-60
2023/03/05 10:56:31;;;;;;;;;;;19.50;46.30;;;;;;1527463;76;720;-61
2023/03/05 10:58:33;;;;;;;;;;;19.50;46.30;;;;;;1520253;76;713;-62
2023/03/05 11:00:35;;;;;;;;;;;19.50;46.30;;;;;;1520505;76;772;-60
2023/03/05 11:02:38;;;;;;;;;;;19.50;46.30;;;;;;1519289;76;1564;-60
2023/03/05 11:04:40;;;;;;;;;;;19.50;46.30;;;;;;1519655;76;1076;-61
2023/03/05 11:06:44;;;;;;;;;;;19.50;46.30;;;;;;1525870;76;681;-61
2023/03/05 11:08:46;;;;;;;;;;;19.50;46.30;;;;;;1524344;76;654;-61
2023/03/05 11:10:49;;;;;;;;;;;19.50;46.30;;;;;;1529593;76;1939;-59
2023/03/05 11:12:53;;;;;;;;;;;19.50;46.30;;;;;;1537060;76;1565;-60
2023/03/05 11:15:05;;;;;;;;;;;19.50;46.30;;;;;;1508839;76;751;-60
2023/03/05 11:17:23;;;;;;;;;;;19.50;46.30;;;;;;1532388;76;1443;-60
2023/03/05 11:19:36;;;;;;;;;;;19.50;46.30;;;;;;1522905;76;665;-61
2023/03/05 11:21:38;;;;;;;;;;;19.50;46.30;;;;;;1527771;76;1130;-60
2023/03/05 11:23:40;;;;;;;;;;;19.50;46.30;;;;;;1532871;76;672;-60
2023/03/05 11:25:52;;;;;;;;;;;19.50;46.30;;;;;;1517249;76;805;-61
2023/03/05 11:27:57;;;;;;;;;;;19.50;46.30;;;;;;1520366;76;804;-65
2023/03/05 11:29:59;;;;;;;;;;;19.50;46.40;;;;;;1522867;76;1912;-60
2023/03/05 11:32:19;;;;;;;;;;;19.50;46.30;;;;;;1524576;76;1143;-60
2023/03/05 11:34:22;;;;;;;;;;;19.50;46.10;;;;;;1518184;76;741;-60
2023/03/05 11:36:28;;;;;;;;;;;19.50;46.40;;;;;;1531293;76;699;-60
2023/03/05 11:38:30;;;;;;;;;;;19.40;46.30;;;;;;1517719;76;750;-59
2023/03/05 11:40:35;;;;;;;;;;;19.50;46.40;;;;;;1517011;76;725;-61
2023/03/05 11:42:38;;;;;;;;;;;19.50;46.30;;;;;;1520176;76;1111;-60
2023/03/05 11:44:44;;;;;;;;;;;19.50;46.30;;;;;;1520974;76;1624;-60
2023/03/05 11:46:47;;;;;;;;;;;19.50;46.30;;;;;;1519016;76;762;-59
2023/03/05 11:48:49;;;;;;;;;;;19.40;46.20;;;;;;1518031;76;788;-60
2023/03/05 11:50:52;;;;;;;;;;;19.50;46.30;;;;;;1517377;76;1914;-60
2023/03/05 11:52:57;;;;;;;;;;;19.40;46.10;;;;;;1529829;76;813;-59
2023/03/05 11:55:03;;;;;;;;;;;19.50;46.30;;;;;;1525140;76;771;-65
2023/03/05 11:57:07;;;;;;;;;;;19.40;46.10;;;;;;1530034;76;1880;-60
2023/03/05 11:59:19;;;;;;;;;;;19.50;46.30;;;;;;1530335;76;1284;-62
2023/03/05 12:01:21;;;;;;;;;;;19.50;46.20;;;;;;1525568;76;1178;-60
2023/03/05 12:03:24;;;;;;;;;;;19.50;46.30;;;;;;1515856;76;746;-61
2023/03/05 12:05:27;;;;;;;;;;;19.40;46.10;;;;;;1523826;76;758;-60
2023/03/05 12:07:31;;;;;;;;;;;19.40;46.10;;;;;;1521345;76;705;-60
2023/03/05 12:09:46;;;;;;;;;;;19.40;46.20;;;;;;1525876;76;1943;-61
2023/03/05 12:11:49;;;;;;;;;;;19.40;46.20;;;;;;1518949;76;1557;-60
2023/03/05 12:14:08;;;;;;;;;;;19.50;46.30;;;;;;1519020;76;731;-60